createdAt,value
2023-02-23T00:08:12.999Z,14.38
2023-02-23T00:10:40.203Z,16.25
2023-02-23T00:15:32.935Z,10.25
2023-02-23T00:18:00.099Z,21.67
2023-02-23T00:20:29.574Z,15.90
2023-02-23T00:25:24.329Z,11.40
2023-02-23T00:27:52.379Z,10.68
2023-02-23T00:30:20.028Z,16.23
2023-02-23T00:32:50.482Z,11.65
2023-02-23T00:35:17.853Z,12.70
2023-02-23T00:37:45.938Z,16.77
2023-02-23T00:40:16.665Z,12.75
2023-02-23T00:42:44.280Z,15.93
2023-02-23T00:55:30.982Z,12.18
2023-02-23T01:00:25.692Z,14.15
2023-02-23T01:02:54.707Z,14.30
2023-02-23T01:05:22.478Z,8.43
2023-02-23T01:10:20.689Z,13.75
2023-02-23T01:12:49.492Z,11.60
2023-02-23T01:30:05.073Z,12.52
2023-02-23T01:32:32.007Z,11.60
2023-02-23T01:34:58.885Z,14.32
2023-02-23T01:37:25.892Z,12.32
2023-02-23T01:39:52.982Z,17.77
2023-02-23T01:42:20.024Z,12.48
2023-02-23T01:44:48.095Z,22.60
2023-02-23T01:47:15.232Z,12.25
2023-02-23T01:52:13.327Z,10.85
2023-02-23T01:54:50.719Z,13.32
2023-02-23T01:57:20.900Z,13.45
2023-02-23T01:59:49.459Z,14.05
2023-02-23T02:02:17.184Z,12.75
2023-02-23T02:04:44.969Z,15.82
2023-02-23T02:07:17.151Z,11.85
2023-02-23T02:10:17.789Z,11.82
2023-02-23T02:15:17.628Z,11.00
2023-02-23T02:17:47.924Z,16.30
2023-02-23T02:20:33.416Z,12.40
2023-02-23T02:39:36.798Z,14.70
2023-02-23T02:42:06.651Z,13.98
2023-02-23T02:44:42.325Z,10.65
2023-02-23T02:47:12.830Z,9.32
2023-02-23T02:54:49.087Z,13.60
2023-02-23T02:57:17.524Z,7.20
2023-02-23T03:22:40.507Z,14.95
2023-02-23T03:25:32.471Z,20.83
2023-02-23T03:36:54.569Z,11.68
2023-02-23T04:02:10.363Z,12.30
2023-02-23T04:04:56.552Z,19.55
2023-02-23T04:15:46.437Z,14.43
2023-02-23T04:18:16.327Z,14.77
2023-02-23T04:20:43.425Z,10.38
2023-02-23T04:23:10.448Z,15.02
2023-02-23T04:25:37.621Z,14.38
2023-02-23T04:28:04.510Z,10.73
2023-02-23T04:30:31.522Z,14.45
2023-02-23T04:32:59.478Z,10.60
2023-02-23T04:35:28.999Z,14.00
2023-02-23T04:40:23.982Z,12.68
2023-02-23T04:42:51.453Z,14.95
2023-02-23T04:47:45.063Z,11.40
2023-02-23T04:50:12.686Z,14.07
2023-02-23T05:02:24.961Z,15.20
2023-02-23T05:04:52.084Z,14.55
2023-02-23T05:07:19.217Z,18.02
2023-02-23T05:09:46.354Z,12.02
2023-02-23T05:12:13.354Z,16.50
2023-02-23T05:14:40.195Z,13.77
2023-02-23T05:17:08.742Z,13.02
2023-02-23T05:19:36.552Z,16.25
2023-02-23T05:25:06.978Z,15.13
2023-02-23T05:27:34.580Z,14.10
2023-02-23T05:30:04.384Z,25.65
2023-02-23T05:37:22.762Z,15.77
2023-02-23T05:42:15.567Z,12.13
2023-02-23T05:44:42.667Z,10.77
2023-02-23T05:49:37.017Z,13.05
2023-02-23T05:52:04.193Z,22.98
2023-02-23T05:54:31.680Z,15.63
2023-02-23T05:57:01.475Z,10.93
2023-02-23T05:59:28.902Z,16.08
2023-02-23T06:04:23.731Z,11.63
2023-02-23T06:06:50.857Z,9.82
2023-02-23T06:14:10.481Z,15.32
2023-02-23T06:19:04.001Z,20.27
2023-02-23T06:21:31.566Z,19.80
2023-02-23T06:26:26.701Z,16.13
2023-02-23T06:28:53.688Z,19.50
2023-02-23T06:43:34.536Z,29.20
2023-02-23T06:48:27.942Z,11.02
2023-02-23T06:50:55.018Z,19.27
2023-02-23T06:58:14.522Z,17.27
2023-02-23T07:00:43.884Z,9.30
2023-02-23T07:08:02.882Z,16.00
2023-02-23T07:10:30.064Z,20.15
2023-02-23T07:12:57.506Z,20.27
2023-02-23T07:15:24.583Z,15.70
2023-02-23T07:17:53.079Z,18.63
2023-02-23T07:20:20.078Z,28.40
2023-02-23T07:22:46.946Z,25.35
2023-02-23T07:25:13.950Z,22.00
2023-02-23T07:27:42.411Z,19.77
2023-02-23T07:30:09.516Z,18.88
2023-02-23T07:37:27.649Z,17.83
2023-02-23T07:44:45.684Z,24.55
2023-02-23T07:47:12.822Z,30.80
2023-02-23T07:52:43.197Z,24.70
2023-02-23T07:55:10.916Z,20.80
2023-02-23T07:57:38.397Z,26.33
2023-02-23T08:02:39.468Z,23.83
2023-02-23T08:05:06.575Z,24.42
2023-02-23T08:07:33.853Z,28.95
2023-02-23T08:10:00.980Z,23.70
2023-02-23T08:12:28.113Z,23.38
2023-02-23T08:14:54.970Z,26.90
2023-02-23T08:17:22.105Z,25.63
2023-02-23T08:19:49.960Z,27.42
2023-02-23T08:22:16.963Z,34.03
2023-02-23T08:24:43.805Z,35.70
2023-02-23T08:34:31.143Z,36.67
2023-02-23T08:36:58.106Z,24.25
2023-02-23T08:39:25.354Z,29.50
2023-02-23T08:41:55.672Z,23.02
2023-02-23T08:44:22.892Z,23.45
2023-02-23T08:46:50.012Z,26.40
2023-02-23T08:56:40.164Z,26.23
2023-02-23T08:59:07.438Z,23.02
2023-02-23T09:04:37.681Z,21.15
2023-02-23T09:07:05.238Z,22.60
2023-02-23T09:09:32.725Z,17.13
2023-02-23T09:14:25.465Z,30.13
2023-02-23T09:16:52.418Z,16.67
2023-02-23T09:21:45.994Z,17.15
2023-02-23T09:24:13.027Z,17.08
2023-02-23T09:38:56.844Z,17.75
2023-02-23T09:46:42.185Z,15.02
2023-02-23T09:49:16.408Z,15.35
2023-02-23T09:56:47.591Z,13.88
2023-02-23T09:59:15.913Z,14.27
2023-02-23T10:07:00.598Z,10.82
2023-02-23T10:09:27.733Z,8.98
2023-02-23T10:12:10.334Z,8.07
2023-02-23T10:15:06.742Z,11.18
2023-02-23T10:17:36.820Z,9.35
2023-02-23T10:20:13.667Z,12.48
2023-02-23T10:27:48.875Z,12.57
2023-02-23T10:30:19.368Z,11.35
2023-02-23T10:32:46.265Z,9.18
2023-02-23T10:35:14.811Z,8.25
2023-02-23T10:37:42.039Z,9.35
2023-02-23T10:40:14.711Z,10.05
2023-02-23T10:42:41.833Z,12.10
2023-02-23T10:45:19.863Z,11.75
2023-02-23T10:47:47.197Z,12.60
2023-02-23T10:50:14.606Z,9.52
2023-02-23T10:58:00.809Z,12.13
2023-02-23T11:02:58.796Z,10.98
2023-02-23T11:05:33.586Z,11.57
2023-02-23T11:08:22.560Z,14.45
2023-02-23T11:10:58.891Z,15.15
2023-02-23T11:13:34.048Z,13.77
2023-02-23T11:18:28.448Z,14.30
2023-02-23T11:20:55.926Z,16.05
2023-02-23T11:23:24.918Z,25.60
2023-02-23T11:25:53.184Z,15.80
2023-02-23T11:28:22.557Z,18.30
2023-02-23T11:35:45.675Z,20.33
2023-02-23T11:41:04.217Z,23.55
2023-02-23T11:43:31.500Z,22.08
2023-02-23T11:45:59.972Z,22.88
2023-02-23T11:48:29.712Z,21.02
2023-02-23T11:50:57.515Z,27.77
2023-02-23T11:53:36.449Z,27.42
2023-02-23T11:58:39.577Z,29.80
2023-02-23T12:06:39.014Z,31.13
2023-02-23T12:09:14.993Z,29.85
2023-02-23T12:11:46.618Z,36.60
2023-02-23T12:14:17.516Z,28.67
2023-02-23T12:16:50.604Z,26.05
2023-02-23T12:19:25.778Z,31.20
2023-02-23T12:21:55.786Z,23.58
2023-02-23T12:27:13.075Z,29.30
2023-02-23T12:29:44.300Z,29.48
2023-02-23T12:32:29.740Z,31.98
2023-02-23T12:35:06.760Z,25.15
2023-02-23T12:37:45.167Z,31.63
2023-02-23T12:40:32.776Z,26.48
2023-02-23T12:43:06.302Z,25.15
2023-02-23T12:45:45.341Z,28.27
2023-02-23T12:48:16.170Z,27.50
2023-02-23T12:58:31.170Z,26.67
2023-02-23T13:01:05.046Z,30.00
2023-02-23T13:08:58.913Z,41.00
2023-02-23T13:11:34.657Z,30.35
2023-02-23T13:16:51.861Z,24.30
2023-02-23T13:21:57.098Z,29.92
2023-02-23T13:24:26.424Z,29.67
2023-02-23T13:27:01.466Z,27.55
2023-02-23T13:29:28.217Z,23.80
2023-02-23T13:31:55.481Z,21.38
2023-02-23T13:34:26.794Z,23.58
2023-02-23T13:39:37.846Z,19.95
2023-02-23T13:44:55.503Z,19.08
2023-02-23T13:47:31.389Z,19.13
2023-02-23T13:50:01.990Z,15.32
2023-02-23T13:52:42.200Z,20.23
2023-02-23T13:55:24.328Z,22.35
2023-02-23T13:57:51.907Z,24.67
2023-02-23T14:00:22.872Z,14.73
2023-02-23T14:02:50.527Z,20.00
2023-02-23T14:10:24.948Z,17.17
2023-02-23T14:17:57.922Z,16.63
2023-02-23T14:23:14.063Z,16.25
2023-02-23T14:33:41.777Z,12.57
2023-02-23T14:36:37.824Z,13.27
2023-02-23T14:39:09.644Z,15.52
2023-02-23T14:49:20.341Z,25.92
2023-02-23T14:54:34.261Z,17.55
2023-02-23T14:57:02.903Z,26.67
2023-02-23T14:59:37.331Z,17.50
2023-02-23T15:02:08.872Z,18.63
2023-02-23T15:04:38.825Z,19.38
2023-02-23T15:07:06.826Z,10.88
2023-02-23T15:12:12.234Z,17.60
2023-02-23T15:22:00.829Z,11.18
2023-02-23T15:24:31.090Z,9.35
2023-02-23T15:26:58.244Z,18.20
2023-02-23T15:34:20.668Z,10.15
2023-02-23T15:46:46.258Z,26.35
2023-02-23T15:56:50.245Z,9.60
2023-02-23T16:01:54.406Z,18.80
2023-02-23T16:14:49.278Z,18.10
2023-02-23T16:17:24.319Z,16.73
2023-02-23T16:22:27.143Z,14.93
2023-02-23T16:24:57.955Z,20.10
2023-02-23T16:27:26.856Z,22.77
2023-02-23T16:32:32.535Z,18.40
2023-02-23T16:39:56.165Z,17.08
2023-02-23T16:44:48.885Z,22.08
2023-02-23T16:49:51.037Z,26.65
2023-02-23T16:52:25.349Z,22.38
2023-02-23T17:07:18.303Z,33.97
2023-02-23T17:09:45.541Z,26.38
2023-02-23T17:12:13.432Z,37.97
2023-02-23T17:29:21.362Z,35.80
2023-02-23T17:31:48.789Z,35.47
2023-02-23T17:46:28.853Z,36.50
2023-02-23T17:48:56.399Z,38.17
2023-02-23T17:51:23.852Z,35.20
2023-02-23T17:53:50.780Z,34.13
2023-02-23T17:56:18.094Z,33.60
2023-02-23T17:58:46.035Z,34.30
2023-02-23T18:01:13.263Z,36.97
2023-02-23T18:08:35.975Z,31.45
2023-02-23T18:11:03.094Z,37.47
2023-02-23T18:13:30.464Z,36.38
2023-02-23T18:16:06.821Z,35.00
2023-02-23T18:18:34.322Z,32.80
2023-02-23T18:21:01.319Z,30.88
2023-02-23T18:25:54.960Z,33.47
2023-02-23T18:28:22.103Z,37.28
2023-02-23T18:30:49.102Z,36.53
2023-02-23T18:38:11.847Z,44.85
2023-02-23T18:40:39.259Z,35.58
2023-02-23T18:43:06.606Z,35.13
2023-02-23T18:45:35.908Z,42.88
2023-02-23T18:48:04.743Z,39.35
2023-02-23T18:57:54.646Z,41.70
2023-02-23T19:00:21.934Z,42.92
2023-02-23T19:12:40.192Z,44.92
2023-02-23T19:15:08.385Z,41.40
2023-02-23T19:17:36.104Z,39.10
2023-02-23T19:22:33.959Z,44.35
2023-02-23T19:25:00.947Z,54.03
2023-02-23T19:27:27.987Z,46.25
2023-02-23T19:29:54.952Z,52.05
2023-02-23T19:32:22.127Z,55.67
2023-02-23T19:37:14.899Z,60.72
2023-02-23T19:39:45.111Z,51.72
2023-02-23T19:42:16.010Z,57.13
2023-02-23T19:44:43.448Z,57.72
2023-02-23T19:47:10.490Z,56.25
2023-02-23T19:49:37.633Z,57.30
2023-02-23T19:52:04.575Z,56.40
2023-02-23T19:54:34.341Z,58.97
2023-02-23T19:57:01.248Z,58.35
2023-02-23T19:59:28.861Z,62.58
2023-02-23T20:01:55.804Z,52.75
2023-02-23T20:09:14.627Z,58.50
2023-02-23T20:16:34.553Z,55.25
2023-02-23T20:21:30.872Z,52.13
2023-02-23T20:23:58.427Z,58.33
2023-02-23T20:28:52.794Z,46.88
2023-02-23T20:31:21.994Z,47.22
2023-02-23T20:36:18.240Z,45.50
2023-02-23T20:38:45.244Z,52.15
2023-02-23T20:46:05.532Z,47.67
2023-02-23T20:58:23.710Z,43.85
2023-02-23T21:00:51.431Z,41.10
2023-02-23T21:03:18.434Z,45.60
2023-02-23T21:05:45.446Z,50.08
2023-02-23T21:13:06.220Z,44.42
2023-02-23T21:15:33.534Z,46.13
2023-02-23T21:18:00.820Z,49.92
2023-02-23T21:20:28.793Z,55.92
2023-02-23T21:22:56.168Z,46.70
2023-02-23T21:27:50.731Z,40.25
2023-02-23T21:30:21.449Z,50.67
2023-02-23T21:32:53.308Z,41.03
2023-02-23T21:35:20.856Z,46.78
2023-02-23T21:37:48.360Z,43.50
2023-02-23T21:45:13.468Z,40.78
2023-02-23T21:47:41.654Z,41.35
2023-02-23T21:50:13.928Z,43.90
2023-02-23T21:52:43.943Z,43.45
2023-02-23T21:55:20.661Z,38.85
2023-02-23T22:09:58.666Z,46.60
2023-02-23T22:14:53.738Z,40.30
2023-02-23T22:17:20.711Z,53.50
2023-02-23T22:22:15.714Z,32.28
2023-02-23T22:24:42.698Z,37.47
2023-02-23T22:27:10.678Z,36.08
2023-02-23T22:29:38.840Z,43.33
2023-02-23T22:32:06.316Z,52.60
2023-02-23T22:34:33.511Z,44.88
2023-02-23T22:37:00.456Z,41.30
2023-02-23T22:39:27.347Z,43.75
2023-02-23T22:51:42.512Z,39.80
2023-02-23T22:54:09.890Z,40.72
2023-02-23T22:59:05.581Z,43.08
2023-02-23T23:01:33.306Z,47.05
2023-02-23T23:04:00.391Z,50.28
2023-02-23T23:06:27.390Z,46.65
2023-02-23T23:08:56.208Z,49.15
2023-02-23T23:13:53.105Z,44.47
2023-02-23T23:16:30.953Z,48.80
2023-02-23T23:19:02.881Z,37.15
2023-02-23T23:21:30.900Z,53.80
2023-02-23T23:23:58.898Z,44.30
2023-02-23T23:31:24.116Z,39.13
2023-02-23T23:36:18.977Z,43.95
2023-02-23T23:38:45.930Z,45.85
2023-02-23T23:48:59.421Z,39.28
2023-02-23T23:53:58.602Z,41.25
2023-02-23T23:56:25.568Z,39.85
2023-02-23T23:58:54.250Z,39.22
